sensor_id;sensor_type;location;lat;lon;timestamp;temperature;humidity
814;DHT22;389;48.710;9.392;2023-03-23T00:01:03;12.00;92.40
814;DHT22;389;48.710;9.392;2023-03-23T00:03:29;12.00;92.60
814;DHT22;389;48.710;9.392;2023-03-23T00:05:58;12.10;92.60
814;DHT22;389;48.710;9.392;2023-03-23T00:08:30;12.00;92.60
814;DHT22;389;48.710;9.392;2023-03-23T00:10:56;12.00;92.80
814;DHT22;389;48.710;9.392;2023-03-23T00:13:28;12.00;92.80
814;DHT22;389;48.710;9.392;2023-03-23T00:15:54;12.00;92.80
814;DHT22;389;48.710;9.392;2023-03-23T00:18:22;12.00;92.70
814;DHT22;389;48.710;9.392;2023-03-23T00:20:49;12.10;92.70
814;DHT22;389;48.710;9.392;2023-03-23T00:23:19;12.10;92.60
814;DHT22;389;48.710;9.392;2023-03-23T00:25:47;12.10;92.60
814;DHT22;389;48.710;9.392;2023-03-23T00:28:13;12.10;92.50
814;DHT22;389;48.710;9.392;2023-03-23T00:30:40;12.10;92.60
814;DHT22;389;48.710;9.392;2023-03-23T00:33:07;12.00;92.30
814;DHT22;389;48.710;9.392;2023-03-23T00:35:33;12.20;92.40
814;DHT22;389;48.710;9.392;2023-03-23T00:38:01;12.00;92.30
814;DHT22;389;48.710;9.392;2023-03-23T00:40:27;12.10;92.30
814;DHT22;389;48.710;9.392;2023-03-23T00:42:53;12.10;92.40
814;DHT22;389;48.710;9.392;2023-03-23T00:45:19;12.30;92.50
814;DHT22;389;48.710;9.392;2023-03-23T00:47:44;12.20;92.90
814;DHT22;389;48.710;9.392;2023-03-23T00:50:12;12.20;92.70
814;DHT22;389;48.710;9.392;2023-03-23T00:52:39;12.20;92.90
814;DHT22;389;48.710;9.392;2023-03-23T00:55:06;12.10;93.30
814;DHT22;389;48.710;9.392;2023-03-23T00:57:32;12.10;93.80
814;DHT22;389;48.710;9.392;2023-03-23T00:59:57;12.10;94.10
814;DHT22;389;48.710;9.392;2023-03-23T01:02:23;12.10;94.10
814;DHT22;389;48.710;9.392;2023-03-23T01:04:50;12.10;94.10
814;DHT22;389;48.710;9.392;2023-03-23T01:07:19;12.10;94.30
814;DHT22;389;48.710;9.392;2023-03-23T01:09:46;12.20;94.30
814;DHT22;389;48.710;9.392;2023-03-23T01:12:12;12.30;94.40
814;DHT22;389;48.710;9.392;2023-03-23T01:14:38;12.30;94.40
814;DHT22;389;48.710;9.392;2023-03-23T01:17:04;12.20;94.60
814;DHT22;389;48.710;9.392;2023-03-23T01:19:30;12.10;94.90
814;DHT22;389;48.710;9.392;2023-03-23T01:21:55;12.10;94.90
814;DHT22;389;48.710;9.392;2023-03-23T01:24:21;12.10;94.90
814;DHT22;389;48.710;9.392;2023-03-23T01:26:47;12.20;94.80
814;DHT22;389;48.710;9.392;2023-03-23T01:29:12;12.20;94.70
814;DHT22;389;48.710;9.392;2023-03-23T01:31:39;12.20;94.70
814;DHT22;389;48.710;9.392;2023-03-23T01:34:04;12.20;94.60
814;DHT22;389;48.710;9.392;2023-03-23T01:36:30;12.20;94.60
814;DHT22;389;48.710;9.392;2023-03-23T01:38:59;12.20;94.60
814;DHT22;389;48.710;9.392;2023-03-23T01:41:26;12.20;94.60
814;DHT22;389;48.710;9.392;2023-03-23T01:44:03;12.20;94.60
814;DHT22;389;48.710;9.392;2023-03-23T01:46:34;12.20;94.60
814;DHT22;389;48.710;9.392;2023-03-23T01:49:09;12.20;94.50
814;DHT22;389;48.710;9.392;2023-03-23T01:51:42;12.20;94.10
814;DHT22;389;48.710;9.392;2023-03-23T01:54:12;12.20;94.10
814;DHT22;389;48.710;9.392;2023-03-23T01:56:42;12.20;94.10
814;DHT22;389;48.710;9.392;2023-03-23T01:59:11;12.40;94.30
814;DHT22;389;48.710;9.392;2023-03-23T02:01:37;12.20;94.20
814;DHT22;389;48.710;9.392;2023-03-23T02:04:08;12.20;94.30
814;DHT22;389;48.710;9.392;2023-03-23T02:06:34;12.20;94.30
814;DHT22;389;48.710;9.392;2023-03-23T02:09:00;12.30;94.20
814;DHT22;389;48.710;9.392;2023-03-23T02:11:26;12.20;94.00
814;DHT22;389;48.710;9.392;2023-03-23T02:13:51;12.20;93.90
814;DHT22;389;48.710;9.392;2023-03-23T02:24:13;12.20;93.70
814;DHT22;389;48.710;9.392;2023-03-23T02:35:28;12.20;93.60
814;DHT22;389;48.710;9.392;2023-03-23T02:38:22;12.20;93.70
814;DHT22;389;48.710;9.392;2023-03-23T02:40:50;12.20;93.80
814;DHT22;389;48.710;9.392;2023-03-23T02:43:20;12.20;94.00
814;DHT22;389;48.710;9.392;2023-03-23T02:45:47;12.10;94.20
814;DHT22;389;48.710;9.392;2023-03-23T02:48:16;12.20;94.20
814;DHT22;389;48.710;9.392;2023-03-23T02:50:46;12.20;94.10
814;DHT22;389;48.710;9.392;2023-03-23T02:53:15;12.30;94.10
814;DHT22;389;48.710;9.392;2023-03-23T02:55:43;12.30;94.00
814;DHT22;389;48.710;9.392;2023-03-23T02:58:11;12.20;93.90
814;DHT22;389;48.710;9.392;2023-03-23T03:00:37;12.20;93.80
814;DHT22;389;48.710;9.392;2023-03-23T03:03:04;12.20;93.80
814;DHT22;389;48.710;9.392;2023-03-23T04:18:02;12.40;93.10
814;DHT22;389;48.710;9.392;2023-03-23T04:20:28;12.40;93.00
814;DHT22;389;48.710;9.392;2023-03-23T04:22:54;12.40;93.00
814;DHT22;389;48.710;9.392;2023-03-23T04:25:20;12.40;93.20
814;DHT22;389;48.710;9.392;2023-03-23T04:27:47;12.40;93.10
814;DHT22;389;48.710;9.392;2023-03-23T04:30:22;12.40;93.00
814;DHT22;389;48.710;9.392;2023-03-23T04:32:49;12.40;93.10
814;DHT22;389;48.710;9.392;2023-03-23T04:35:24;12.40;93.10
814;DHT22;389;48.710;9.392;2023-03-23T04:37:51;12.40;93.10
814;DHT22;389;48.710;9.392;2023-03-23T04:40:17;12.40;93.20
814;DHT22;389;48.710;9.392;2023-03-23T04:42:44;12.40;93.30
814;DHT22;389;48.710;9.392;2023-03-23T04:45:17;12.40;93.30
814;DHT22;389;48.710;9.392;2023-03-23T04:47:50;12.40;93.50
814;DHT22;389;48.710;9.392;2023-03-23T04:50:23;12.40;93.50
814;DHT22;389;48.710;9.392;2023-03-23T04:52:52;12.40;93.50
814;DHT22;389;48.710;9.392;2023-03-23T04:55:20;12.40;93.60
814;DHT22;389;48.710;9.392;2023-03-23T04:57:49;12.40;93.60
814;DHT22;389;48.710;9.392;2023-03-23T05:00:15;12.40;93.80
814;DHT22;389;48.710;9.392;2023-03-23T05:02:43;12.30;94.00
814;DHT22;389;48.710;9.392;2023-03-23T05:05:11;12.20;94.10
814;DHT22;389;48.710;9.392;2023-03-23T05:07:41;12.30;94.20
814;DHT22;389;48.710;9.392;2023-03-23T05:10:09;12.30;94.20
814;DHT22;389;48.710;9.392;2023-03-23T05:12:35;12.30;94.10
814;DHT22;389;48.710;9.392;2023-03-23T05:15:01;12.30;94.20
814;DHT22;389;48.710;9.392;2023-03-23T05:17:27;12.30;94.30
814;DHT22;389;48.710;9.392;2023-03-23T05:19:52;12.40;94.60
814;DHT22;389;48.710;9.392;2023-03-23T05:22:19;12.40;94.50
814;DHT22;389;48.710;9.392;2023-03-23T05:24:49;12.40;94.50
814;DHT22;389;48.710;9.392;2023-03-23T05:27:17;12.40;94.60
814;DHT22;389;48.710;9.392;2023-03-23T05:29:45;12.40;94.60
814;DHT22;389;48.710;9.392;2023-03-23T05:32:17;12.40;94.60
814;DHT22;389;48.710;9.392;2023-03-23T05:34:44;12.40;94.80
814;DHT22;389;48.710;9.392;2023-03-23T05:37:11;12.40;94.70
814;DHT22;389;48.710;9.392;2023-03-23T05:39:37;12.40;94.80
814;DHT22;389;48.710;9.392;2023-03-23T05:42:04;12.30;94.80
814;DHT22;389;48.710;9.392;2023-03-23T05:44:30;12.40;94.80
814;DHT22;389;48.710;9.392;2023-03-23T05:46:56;12.50;94.80
814;DHT22;389;48.710;9.392;2023-03-23T05:49:21;12.50;94.70
814;DHT22;389;48.710;9.392;2023-03-23T05:51:48;12.60;94.70
814;DHT22;389;48.710;9.392;2023-03-23T05:54:15;12.50;94.60
814;DHT22;389;48.710;9.392;2023-03-23T05:56:42;12.60;94.70
814;DHT22;389;48.710;9.392;2023-03-23T05:59:08;12.60;94.60
814;DHT22;389;48.710;9.392;2023-03-23T06:01:35;12.60;94.60
814;DHT22;389;48.710;9.392;2023-03-23T06:04:04;12.60;94.70
814;DHT22;389;48.710;9.392;2023-03-23T06:06:30;12.70;94.70
814;DHT22;389;48.710;9.392;2023-03-23T06:08:57;12.70;94.70
814;DHT22;389;48.710;9.392;2023-03-23T06:11:23;12.70;94.70
814;DHT22;389;48.710;9.392;2023-03-23T06:13:50;12.80;95.00
814;DHT22;389;48.710;9.392;2023-03-23T06:16:16;12.80;94.70
814;DHT22;389;48.710;9.392;2023-03-23T06:18:41;12.90;94.70
814;DHT22;389;48.710;9.392;2023-03-23T06:21:09;13.00;94.70
814;DHT22;389;48.710;9.392;2023-03-23T06:23:35;12.90;94.50
814;DHT22;389;48.710;9.392;2023-03-23T06:26:04;13.00;94.50
814;DHT22;389;48.710;9.392;2023-03-23T06:28:31;13.10;94.50
814;DHT22;389;48.710;9.392;2023-03-23T06:31:01;13.20;94.50
814;DHT22;389;48.710;9.392;2023-03-23T06:33:37;13.30;94.40
814;DHT22;389;48.710;9.392;2023-03-23T06:36:07;13.40;94.40
814;DHT22;389;48.710;9.392;2023-03-23T06:38:48;13.40;94.30
814;DHT22;389;48.710;9.392;2023-03-23T06:41:22;13.40;94.00
814;DHT22;389;48.710;9.392;2023-03-23T06:43:50;13.50;94.00
814;DHT22;389;48.710;9.392;2023-03-23T06:46:17;13.40;93.80
814;DHT22;389;48.710;9.392;2023-03-23T06:48:42;13.60;93.80
814;DHT22;389;48.710;9.392;2023-03-23T06:51:08;13.70;93.80
814;DHT22;389;48.710;9.392;2023-03-23T06:53:34;13.70;93.70
814;DHT22;389;48.710;9.392;2023-03-23T06:56:00;13.70;93.60
814;DHT22;389;48.710;9.392;2023-03-23T06:58:26;13.70;93.60
814;DHT22;389;48.710;9.392;2023-03-23T07:00:55;13.70;93.50
814;DHT22;389;48.710;9.392;2023-03-23T07:03:24;13.80;93.60
814;DHT22;389;48.710;9.392;2023-03-23T07:05:51;13.80;93.60
814;DHT22;389;48.710;9.392;2023-03-23T07:08:17;13.90;93.70
814;DHT22;389;48.710;9.392;2023-03-23T07:10:43;13.90;93.80
814;DHT22;389;48.710;9.392;2023-03-23T07:13:09;14.20;93.90
814;DHT22;389;48.710;9.392;2023-03-23T07:15:34;14.30;93.90
814;DHT22;389;48.710;9.392;2023-03-23T07:18:01;14.30;93.70
814;DHT22;389;48.710;9.392;2023-03-23T07:20:26;14.60;93.50
814;DHT22;389;48.710;9.392;2023-03-23T07:22:56;14.80;93.10
814;DHT22;389;48.710;9.392;2023-03-23T07:25:29;14.80;92.50
814;DHT22;389;48.710;9.392;2023-03-23T07:28:04;15.10;92.30
814;DHT22;389;48.710;9.392;2023-03-23T07:30:32;15.00;91.90
814;DHT22;389;48.710;9.392;2023-03-23T07:33:05;15.30;91.70
814;DHT22;389;48.710;9.392;2023-03-23T07:35:35;15.20;91.40
814;DHT22;389;48.710;9.392;2023-03-23T07:38:02;15.40;91.30
814;DHT22;389;48.710;9.392;2023-03-23T07:40:34;15.40;91.10
814;DHT22;389;48.710;9.392;2023-03-23T07:43:01;15.40;90.90
814;DHT22;389;48.710;9.392;2023-03-23T07:45:47;15.50;90.80
814;DHT22;389;48.710;9.392;2023-03-23T07:48:15;15.40;90.70
814;DHT22;389;48.710;9.392;2023-03-23T07:50:40;15.50;90.70
814;DHT22;389;48.710;9.392;2023-03-23T07:53:06;15.30;90.50
814;DHT22;389;48.710;9.392;2023-03-23T07:55:32;15.30;90.50
814;DHT22;389;48.710;9.392;2023-03-23T07:57:59;15.30;90.60
814;DHT22;389;48.710;9.392;2023-03-23T08:00:25;15.40;90.70
814;DHT22;389;48.710;9.392;2023-03-23T08:02:55;15.40;90.70
814;DHT22;389;48.710;9.392;2023-03-23T08:05:24;15.50;90.80
814;DHT22;389;48.710;9.392;2023-03-23T08:07:52;15.60;90.80
814;DHT22;389;48.710;9.392;2023-03-23T08:10:20;15.90;90.90
814;DHT22;389;48.710;9.392;2023-03-23T08:12:54;15.90;90.70
814;DHT22;389;48.710;9.392;2023-03-23T08:15:21;16.10;90.70
814;DHT22;389;48.710;9.392;2023-03-23T08:17:48;16.30;90.60
814;DHT22;389;48.710;9.392;2023-03-23T08:20:14;16.50;90.40
814;DHT22;389;48.710;9.392;2023-03-23T08:22:41;16.70;90.20
814;DHT22;389;48.710;9.392;2023-03-23T08:25:09;16.90;90.00
814;DHT22;389;48.710;9.392;2023-03-23T08:27:35;17.10;89.50
814;DHT22;389;48.710;9.392;2023-03-23T08:30:02;17.30;88.80
814;DHT22;389;48.710;9.392;2023-03-23T08:32:27;17.40;88.20
814;DHT22;389;48.710;9.392;2023-03-23T08:34:53;17.60;87.20
814;DHT22;389;48.710;9.392;2023-03-23T08:37:19;17.90;86.70
814;DHT22;389;48.710;9.392;2023-03-23T08:39:44;18.20;85.60
814;DHT22;389;48.710;9.392;2023-03-23T08:42:10;18.30;83.00
814;DHT22;389;48.710;9.392;2023-03-23T08:44:36;18.50;81.40
814;DHT22;389;48.710;9.392;2023-03-23T08:47:03;18.70;80.00
814;DHT22;389;48.710;9.392;2023-03-23T08:49:30;18.90;79.80
814;DHT22;389;48.710;9.392;2023-03-23T08:51:58;19.00;78.40
814;DHT22;389;48.710;9.392;2023-03-23T08:54:23;19.10;77.30
814;DHT22;389;48.710;9.392;2023-03-23T08:56:49;19.10;76.70
814;DHT22;389;48.710;9.392;2023-03-23T08:59:15;19.20;76.00
814;DHT22;389;48.710;9.392;2023-03-23T09:01:41;19.30;75.60
814;DHT22;389;48.710;9.392;2023-03-23T09:04:07;19.40;75.20
814;DHT22;389;48.710;9.392;2023-03-23T09:06:35;19.40;74.80
814;DHT22;389;48.710;9.392;2023-03-23T09:09:00;19.40;74.20
814;DHT22;389;48.710;9.392;2023-03-23T09:11:27;19.30;74.20
814;DHT22;389;48.710;9.392;2023-03-23T09:13:53;19.20;74.40
814;DHT22;389;48.710;9.392;2023-03-23T09:16:19;19.10;74.40
814;DHT22;389;48.710;9.392;2023-03-23T09:18:45;19.00;74.60
814;DHT22;389;48.710;9.392;2023-03-23T09:21:11;19.00;75.10
814;DHT22;389;48.710;9.392;2023-03-23T09:23:37;19.10;75.40
814;DHT22;389;48.710;9.392;2023-03-23T09:26:04;19.10;75.00
814;DHT22;389;48.710;9.392;2023-03-23T09:28:30;19.20;75.20
814;DHT22;389;48.710;9.392;2023-03-23T09:30:56;19.40;75.40
814;DHT22;389;48.710;9.392;2023-03-23T09:33:23;19.40;75.20
814;DHT22;389;48.710;9.392;2023-03-23T09:35:49;19.50;74.80
814;DHT22;389;48.710;9.392;2023-03-23T09:38:14;19.60;75.00
814;DHT22;389;48.710;9.392;2023-03-23T09:40:51;19.70;74.60
814;DHT22;389;48.710;9.392;2023-03-23T09:43:51;19.80;74.30
814;DHT22;389;48.710;9.392;2023-03-23T09:49:32;20.00;73.70
814;DHT22;389;48.710;9.392;2023-03-23T09:52:12;20.00;74.10
814;DHT22;389;48.710;9.392;2023-03-23T09:54:50;20.10;74.10
814;DHT22;389;48.710;9.392;2023-03-23T09:57:28;20.10;73.80
814;DHT22;389;48.710;9.392;2023-03-23T10:05:37;20.10;73.80
814;DHT22;389;48.710;9.392;2023-03-23T10:08:22;20.10;74.10
814;DHT22;389;48.710;9.392;2023-03-23T10:19:25;20.00;73.00
814;DHT22;389;48.710;9.392;2023-03-23T10:21:56;19.90;72.80
814;DHT22;389;48.710;9.392;2023-03-23T10:24:35;20.00;73.10
814;DHT22;389;48.710;9.392;2023-03-23T10:29:56;20.10;72.80
814;DHT22;389;48.710;9.392;2023-03-23T10:32:39;20.00;72.90
814;DHT22;389;48.710;9.392;2023-03-23T10:35:12;20.10;72.80
814;DHT22;389;48.710;9.392;2023-03-23T10:37:45;20.20;73.70
814;DHT22;389;48.710;9.392;2023-03-23T10:40:22;20.30;72.80
814;DHT22;389;48.710;9.392;2023-03-23T10:42:50;20.40;72.70
814;DHT22;389;48.710;9.392;2023-03-23T10:45:20;20.40;73.10
814;DHT22;389;48.710;9.392;2023-03-23T10:48:06;20.40;72.00
814;DHT22;389;48.710;9.392;2023-03-23T10:50:36;20.40;72.00
814;DHT22;389;48.710;9.392;2023-03-23T10:53:15;20.30;72.10
814;DHT22;389;48.710;9.392;2023-03-23T10:55:42;20.20;72.20
814;DHT22;389;48.710;9.392;2023-03-23T10:58:12;20.20;71.80
814;DHT22;389;48.710;9.392;2023-03-23T11:00:44;20.10;72.40
814;DHT22;389;48.710;9.392;2023-03-23T11:08:20;20.20;72.80
814;DHT22;389;48.710;9.392;2023-03-23T11:10:54;20.40;72.60
814;DHT22;389;48.710;9.392;2023-03-23T11:13:23;20.60;72.60
814;DHT22;389;48.710;9.392;2023-03-23T11:15:50;20.70;71.50
814;DHT22;389;48.710;9.392;2023-03-23T11:18:22;20.90;71.60
814;DHT22;389;48.710;9.392;2023-03-23T11:20:54;21.00;71.50
814;DHT22;389;48.710;9.392;2023-03-23T11:28:41;21.40;70.40
814;DHT22;389;48.710;9.392;2023-03-23T11:31:08;21.50;70.90
814;DHT22;389;48.710;9.392;2023-03-23T11:36:17;21.60;69.50
814;DHT22;389;48.710;9.392;2023-03-23T11:38:44;21.70;68.50
814;DHT22;389;48.710;9.392;2023-03-23T11:41:17;21.50;68.50
814;DHT22;389;48.710;9.392;2023-03-23T11:43:46;21.50;68.90
814;DHT22;389;48.710;9.392;2023-03-23T11:48:59;21.40;68.50
814;DHT22;389;48.710;9.392;2023-03-23T11:51:47;21.30;68.60
814;DHT22;389;48.710;9.392;2023-03-23T11:54:28;21.30;69.00
814;DHT22;389;48.710;9.392;2023-03-23T11:56:56;21.30;69.10
814;DHT22;389;48.710;9.392;2023-03-23T11:59:29;21.50;69.50
814;DHT22;389;48.710;9.392;2023-03-23T12:13:20;21.80;67.60
814;DHT22;389;48.710;9.392;2023-03-23T12:16:11;21.80;68.60
814;DHT22;389;48.710;9.392;2023-03-23T12:19:03;21.90;68.00
814;DHT22;389;48.710;9.392;2023-03-23T12:21:47;22.00;67.60
814;DHT22;389;48.710;9.392;2023-03-23T12:27:43;22.10;67.60
814;DHT22;389;48.710;9.392;2023-03-23T12:30:42;22.10;66.60
814;DHT22;389;48.710;9.392;2023-03-23T12:36:24;22.20;66.00
814;DHT22;389;48.710;9.392;2023-03-23T12:44:46;21.80;65.80
814;DHT22;389;48.710;9.392;2023-03-23T12:53:06;21.60;66.20
814;DHT22;389;48.710;9.392;2023-03-23T12:56:02;21.50;65.10
814;DHT22;389;48.710;9.392;2023-03-23T12:58:32;21.60;65.50
814;DHT22;389;48.710;9.392;2023-03-23T13:01:33;21.50;64.90
814;DHT22;389;48.710;9.392;2023-03-23T13:04:07;21.60;64.40
814;DHT22;389;48.710;9.392;2023-03-23T13:06:42;21.70;64.20
814;DHT22;389;48.710;9.392;2023-03-23T13:09:38;21.60;64.00
814;DHT22;389;48.710;9.392;2023-03-23T13:12:07;21.70;64.00
814;DHT22;389;48.710;9.392;2023-03-23T13:23:29;22.00;63.80
814;DHT22;389;48.710;9.392;2023-03-23T13:31:41;22.10;63.30
814;DHT22;389;48.710;9.392;2023-03-23T13:34:30;22.00;63.00
814;DHT22;389;48.710;9.392;2023-03-23T13:37:01;22.10;63.50
814;DHT22;389;48.710;9.392;2023-03-23T13:39:56;22.00;63.50
814;DHT22;389;48.710;9.392;2023-03-23T13:42:33;22.00;62.90
814;DHT22;389;48.710;9.392;2023-03-23T13:47:47;22.00;63.90
814;DHT22;389;48.710;9.392;2023-03-23T13:52:55;21.90;63.20
814;DHT22;389;48.710;9.392;2023-03-23T13:55:47;21.70;63.60
814;DHT22;389;48.710;9.392;2023-03-23T13:58:30;21.80;63.60
814;DHT22;389;48.710;9.392;2023-03-23T14:01:31;21.60;63.70
814;DHT22;389;48.710;9.392;2023-03-23T14:04:04;21.80;64.70
814;DHT22;389;48.710;9.392;2023-03-23T14:06:35;21.90;63.60
814;DHT22;389;48.710;9.392;2023-03-23T14:09:30;21.90;63.70
814;DHT22;389;48.710;9.392;2023-03-23T14:12:02;21.90;63.80
814;DHT22;389;48.710;9.392;2023-03-23T14:14:50;21.90;63.90
814;DHT22;389;48.710;9.392;2023-03-23T14:17:42;21.90;63.70
814;DHT22;389;48.710;9.392;2023-03-23T14:20:29;21.80;63.70
814;DHT22;389;48.710;9.392;2023-03-23T14:23:05;21.60;63.90
814;DHT22;389;48.710;9.392;2023-03-23T14:25:33;21.50;64.40
814;DHT22;389;48.710;9.392;2023-03-23T14:28:02;21.40;64.60
814;DHT22;389;48.710;9.392;2023-03-23T14:30:35;21.20;62.80
814;DHT22;389;48.710;9.392;2023-03-23T14:33:05;21.10;62.00
814;DHT22;389;48.710;9.392;2023-03-23T14:35:36;20.90;62.50
814;DHT22;389;48.710;9.392;2023-03-23T14:38:16;20.80;63.50
814;DHT22;389;48.710;9.392;2023-03-23T14:40:46;20.80;63.90
814;DHT22;389;48.710;9.392;2023-03-23T14:43:16;20.60;64.20
814;DHT22;389;48.710;9.392;2023-03-23T14:45:55;20.50;64.40
814;DHT22;389;48.710;9.392;2023-03-23T14:48:22;20.50;64.10
814;DHT22;389;48.710;9.392;2023-03-23T14:50:59;20.40;64.00
814;DHT22;389;48.710;9.392;2023-03-23T14:53:39;20.30;64.00
814;DHT22;389;48.710;9.392;2023-03-23T14:56:19;20.30;64.20
814;DHT22;389;48.710;9.392;2023-03-23T14:58:52;20.20;63.00
814;DHT22;389;48.710;9.392;2023-03-23T15:01:28;20.20;63.70
814;DHT22;389;48.710;9.392;2023-03-23T15:03:56;20.20;64.00
814;DHT22;389;48.710;9.392;2023-03-23T15:06:30;20.20;64.20
814;DHT22;389;48.710;9.392;2023-03-23T15:09:00;20.30;63.30
814;DHT22;389;48.710;9.392;2023-03-23T15:11:37;20.20;63.00
814;DHT22;389;48.710;9.392;2023-03-23T15:14:18;20.20;62.60
814;DHT22;389;48.710;9.392;2023-03-23T15:16:51;20.20;62.70
814;DHT22;389;48.710;9.392;2023-03-23T15:19:28;20.20;62.60
814;DHT22;389;48.710;9.392;2023-03-23T15:22:12;20.20;63.00
814;DHT22;389;48.710;9.392;2023-03-23T15:25:00;20.20;63.00
814;DHT22;389;48.710;9.392;2023-03-23T15:27:27;20.20;62.70
814;DHT22;389;48.710;9.392;2023-03-23T15:29:56;20.20;62.70
814;DHT22;389;48.710;9.392;2023-03-23T15:32:25;20.20;62.80
814;DHT22;389;48.710;9.392;2023-03-23T15:34:51;20.20;63.00
814;DHT22;389;48.710;9.392;2023-03-23T15:37:28;20.20;62.90
814;DHT22;389;48.710;9.392;2023-03-23T15:39:56;20.20;63.10
814;DHT22;389;48.710;9.392;2023-03-23T15:47:32;20.20;63.70
814;DHT22;389;48.710;9.392;2023-03-23T15:50:13;20.10;64.40
814;DHT22;389;48.710;9.392;2023-03-23T15:52:40;20.10;63.90
814;DHT22;389;48.710;9.392;2023-03-23T15:57:46;19.90;64.10
814;DHT22;389;48.710;9.392;2023-03-23T16:00:12;19.80;64.00
814;DHT22;389;48.710;9.392;2023-03-23T16:02:38;19.80;64.00
814;DHT22;389;48.710;9.392;2023-03-23T16:05:05;19.80;63.90
814;DHT22;389;48.710;9.392;2023-03-23T16:07:31;19.60;63.70
814;DHT22;389;48.710;9.392;2023-03-23T16:09:56;19.60;63.60
814;DHT22;389;48.710;9.392;2023-03-23T16:12:22;19.50;63.70
814;DHT22;389;48.710;9.392;2023-03-23T16:14:48;19.50;63.70
814;DHT22;389;48.710;9.392;2023-03-23T16:17:18;19.50;64.20
814;DHT22;389;48.710;9.392;2023-03-23T16:19:44;19.40;64.20
814;DHT22;389;48.710;9.392;2023-03-23T16:22:09;19.30;64.50
814;DHT22;389;48.710;9.392;2023-03-23T16:24:35;19.30;65.00
814;DHT22;389;48.710;9.392;2023-03-23T16:27:01;19.20;65.20
814;DHT22;389;48.710;9.392;2023-03-23T16:29:27;19.20;65.30
814;DHT22;389;48.710;9.392;2023-03-23T16:31:52;19.20;65.40
814;DHT22;389;48.710;9.392;2023-03-23T16:34:18;19.10;65.40
814;DHT22;389;48.710;9.392;2023-03-23T16:36:44;19.00;65.50
814;DHT22;389;48.710;9.392;2023-03-23T16:39:11;19.00;65.60
814;DHT22;389;48.710;9.392;2023-03-23T16:41:37;19.10;65.90
814;DHT22;389;48.710;9.392;2023-03-23T16:44:03;19.00;66.10
814;DHT22;389;48.710;9.392;2023-03-23T16:46:28;18.90;66.20
814;DHT22;389;48.710;9.392;2023-03-23T16:48:54;18.90;66.20
814;DHT22;389;48.710;9.392;2023-03-23T16:51:20;18.90;66.20
814;DHT22;389;48.710;9.392;2023-03-23T16:53:49;18.80;66.40
814;DHT22;389;48.710;9.392;2023-03-23T16:56:15;18.70;66.30
814;DHT22;389;48.710;9.392;2023-03-23T16:58:41;18.90;66.90
814;DHT22;389;48.710;9.392;2023-03-23T17:01:06;18.70;66.70
814;DHT22;389;48.710;9.392;2023-03-23T17:03:33;18.70;66.80
814;DHT22;389;48.710;9.392;2023-03-23T17:05:59;18.60;66.80
814;DHT22;389;48.710;9.392;2023-03-23T17:08:26;18.60;67.00
814;DHT22;389;48.710;9.392;2023-03-23T17:10:52;18.70;67.30
814;DHT22;389;48.710;9.392;2023-03-23T17:13:17;18.60;67.40
814;DHT22;389;48.710;9.392;2023-03-23T17:15:44;18.50;67.60
814;DHT22;389;48.710;9.392;2023-03-23T17:18:12;18.50;67.70
814;DHT22;389;48.710;9.392;2023-03-23T17:20:38;18.50;68.00
814;DHT22;389;48.710;9.392;2023-03-23T17:23:04;18.40;68.20
814;DHT22;389;48.710;9.392;2023-03-23T17:25:30;18.40;68.20
814;DHT22;389;48.710;9.392;2023-03-23T17:27:57;18.40;68.50
814;DHT22;389;48.710;9.392;2023-03-23T17:30:23;18.50;68.90
814;DHT22;389;48.710;9.392;2023-03-23T17:32:48;18.30;68.70
814;DHT22;389;48.710;9.392;2023-03-23T17:35:14;18.30;69.00
814;DHT22;389;48.710;9.392;2023-03-23T17:37:41;18.20;69.20
814;DHT22;389;48.710;9.392;2023-03-23T17:40:08;18.20;69.50
814;DHT22;389;48.710;9.392;2023-03-23T17:42:36;18.10;70.40
814;DHT22;389;48.710;9.392;2023-03-23T17:45:03;18.00;71.40
814;DHT22;389;48.710;9.392;2023-03-23T17:47:29;17.90;71.80
814;DHT22;389;48.710;9.392;2023-03-23T17:49:55;17.80;72.60
814;DHT22;389;48.710;9.392;2023-03-23T17:52:21;17.80;72.90
814;DHT22;389;48.710;9.392;2023-03-23T17:54:47;17.70;73.20
814;DHT22;389;48.710;9.392;2023-03-23T17:57:13;17.80;74.00
814;DHT22;389;48.710;9.392;2023-03-23T17:59:39;17.50;73.70
814;DHT22;389;48.710;9.392;2023-03-23T18:02:05;17.60;73.90
814;DHT22;389;48.710;9.392;2023-03-23T18:04:31;17.40;72.90
814;DHT22;389;48.710;9.392;2023-03-23T18:06:57;17.50;73.00
814;DHT22;389;48.710;9.392;2023-03-23T18:09:23;17.50;73.10
814;DHT22;389;48.710;9.392;2023-03-23T18:11:51;17.30;73.10
814;DHT22;389;48.710;9.392;2023-03-23T18:14:19;17.30;73.10
814;DHT22;389;48.710;9.392;2023-03-23T18:16:47;17.20;73.40
814;DHT22;389;48.710;9.392;2023-03-23T18:19:12;17.20;73.80
814;DHT22;389;48.710;9.392;2023-03-23T18:21:38;17.20;74.00
814;DHT22;389;48.710;9.392;2023-03-23T18:24:04;17.10;74.20
814;DHT22;389;48.710;9.392;2023-03-23T18:26:31;17.10;75.00
814;DHT22;389;48.710;9.392;2023-03-23T18:28:56;17.20;75.70
814;DHT22;389;48.710;9.392;2023-03-23T18:31:22;17.00;75.70
814;DHT22;389;48.710;9.392;2023-03-23T18:33:53;17.00;76.20
814;DHT22;389;48.710;9.392;2023-03-23T18:36:28;17.00;76.40
814;DHT22;389;48.710;9.392;2023-03-23T18:38:55;16.90;76.90
814;DHT22;389;48.710;9.392;2023-03-23T18:41:23;17.00;77.60
814;DHT22;389;48.710;9.392;2023-03-23T18:43:49;16.70;78.10
814;DHT22;389;48.710;9.392;2023-03-23T18:46:15;16.70;78.60
814;DHT22;389;48.710;9.392;2023-03-23T18:48:42;16.70;79.00
814;DHT22;389;48.710;9.392;2023-03-23T18:51:08;16.60;79.60
814;DHT22;389;48.710;9.392;2023-03-23T18:53:35;16.60;80.30
814;DHT22;389;48.710;9.392;2023-03-23T18:56:11;16.50;80.60
814;DHT22;389;48.710;9.392;2023-03-23T18:58:41;16.40;80.80
814;DHT22;389;48.710;9.392;2023-03-23T19:01:12;16.40;81.00
814;DHT22;389;48.710;9.392;2023-03-23T19:03:41;16.40;81.00
814;DHT22;389;48.710;9.392;2023-03-23T19:06:34;16.30;80.90
814;DHT22;389;48.710;9.392;2023-03-23T19:09:06;16.30;81.30
814;DHT22;389;48.710;9.392;2023-03-23T19:11:32;16.30;80.90
814;DHT22;389;48.710;9.392;2023-03-23T19:14:00;16.30;80.30
814;DHT22;389;48.710;9.392;2023-03-23T19:16:26;16.30;80.20
814;DHT22;389;48.710;9.392;2023-03-23T19:18:52;16.30;79.50
814;DHT22;389;48.710;9.392;2023-03-23T19:21:17;16.40;79.50
814;DHT22;389;48.710;9.392;2023-03-23T19:23:43;16.40;79.40
814;DHT22;389;48.710;9.392;2023-03-23T19:31:14;16.50;79.20
814;DHT22;389;48.710;9.392;2023-03-23T19:33:41;16.50;78.80
814;DHT22;389;48.710;9.392;2023-03-23T19:36:09;16.50;78.60
814;DHT22;389;48.710;9.392;2023-03-23T19:38:34;16.60;78.70
814;DHT22;389;48.710;9.392;2023-03-23T19:41:00;16.60;78.60
814;DHT22;389;48.710;9.392;2023-03-23T19:43:30;16.60;78.60
814;DHT22;389;48.710;9.392;2023-03-23T19:45:58;16.60;78.30
814;DHT22;389;48.710;9.392;2023-03-23T19:48:26;16.60;78.30
814;DHT22;389;48.710;9.392;2023-03-23T19:50:53;16.60;78.00
814;DHT22;389;48.710;9.392;2023-03-23T19:53:24;16.70;78.00
814;DHT22;389;48.710;9.392;2023-03-23T19:55:53;16.70;77.80
814;DHT22;389;48.710;9.392;2023-03-23T19:58:19;16.90;77.90